EDT,Max TemperatureF,Mean TemperatureF,Min TemperatureF,Max Dew PointF,MeanDew PointF,Min DewpointF,Max Humidity, Mean Humidity, Min Humidity, Max Sea Level PressureIn, Mean Sea Level PressureIn, Min Sea Level PressureIn, Max VisibilityMiles, Mean VisibilityMiles, Min VisibilityMiles, Max Wind SpeedMPH, Mean Wind SpeedMPH, Max Gust SpeedMPH,PrecipitationIn, CloudCover, Events, WindDirDegrees
2013-8-1,72,66,61,66,64,59,97,91,81,30.03,29.92,29.85,10,6,2,12,2,22,0.29,7,Rain,193
2013-8-2,82,70,59,64,62,57,100,81,45,29.91,29.85,29.81,10,7,1,12,3,16,0.01,2,Rain,230
2013-8-3,79,70,62,67,63,59,93,83,62,29.90,29.87,29.82,10,10,3,12,5,,0.02,3,Rain,221
2013-8-4,78,66,55,58,54,48,93,65,41,29.98,29.90,29.87,10,10,10,14,5,22,0.01,1,,305
2013-8-5,78,64,52,56,50,44,90,63,34,30.07,30.03,29.98,10,10,10,9,4,,0.00,0,,298
2013-8-6,80,64,50,58,54,49,97,70,40,30.13,30.09,30.06,10,10,7,6,1,,0.00,2,,169
2013-8-7,75,67,59,67,62,57,94,80,64,30.15,30.11,30.05,10,10,10,10,3,,0.00,7,,167
2013-8-8,82,76,69,72,69,66,94,83,69,30.05,30.02,29.99,10,10,6,10,5,24,0.02,7,,190
2013-8-9,84,78,71,74,72,69,100,95,72,30.00,29.87,29.78,10,5,0,12,4,38,5.50,7,Fog-Rain,218
2013-8-10,82,72,60,68,60,56,97,72,42,30.07,29.97,29.88,10,10,8,12,5,18,0.00,0,,279
2013-8-11,79,65,53,64,57,52,97,75,51,30.13,30.08,30.02,10,10,10,9,2,,0.01,1,,240
2013-8-12,80,68,57,65,59,55,100,83,47,30.04,30.01,29.93,10,7,0,6,0,,0.00,3,Fog,220
2013-8-13,78,71,64,68,66,61,97,87,66,29.89,29.78,29.68,10,7,1,8,2,,0.51,6,Rain,299
2013-8-14,72,64,54,58,51,46,90,64,47,30.05,29.88,29.77,10,10,10,16,8,21,0.00,2,,297
2013-8-15,75,62,48,57,51,48,97,73,40,30.14,30.11,30.06,10,10,10,13,5,18,0.00,1,,258
2013-8-16,78,64,51,60,54,50,96,74,40,30.20,30.16,30.14,10,10,10,5,1,,0.01,1,,237
2013-8-17,81,65,51,65,56,50,97,78,42,30.30,30.26,30.22,10,8,2,8,1,,0.00,1,Rain,21
2013-8-18,75,66,57,65,61,57,97,86,68,30.27,30.22,30.14,10,8,2,5,1,,0.01,1,Rain,5
2013-8-19,80,70,60,65,62,58,97,82,56,30.13,30.08,30.03,10,8,2,8,3,,0.01,0,,236
2013-8-20,84,70,57,67,60,55,100,85,44,30.14,30.09,30.06,10,5,0,8,1,,0.00,1,Fog-Rain,219
2013-8-21,86,70,57,68,61,55,100,82,41,30.19,30.13,30.05,10,6,1,8,2,,0.01,0,Rain,211
2013-8-22,82,73,64,72,67,63,100,87,67,30.07,29.98,29.86,10,5,0,12,3,,0.57,3,Fog-Rain,225
2013-8-23,79,70,60,65,61,57,93,76,52,30.14,30.00,29.90,10,10,7,8,4,,0.00,1,,4
2013-8-24,78,65,53,58,53,50,93,69,42,30.35,30.28,30.17,10,10,10,8,4,,0.00,0,,36
2013-8-25,81,66,51,59,55,49,96,72,40,30.41,30.31,30.21,10,10,4,14,3,,0.01,0,,215
2013-8-26,79,72,64,70,64,56,96,81,66,30.22,30.04,29.91,10,8,2,13,5,22,0.21,6,Rain,214
2013-8-27,84,76,66,71,68,66,97,82,60,29.92,29.88,29.83,10,8,0,10,4,,0.48,5,Fog-Rain,22
2013-8-28,84,74,64,70,67,63,100,94,63,29.92,29.89,29.85,10,3,0,21,1,26,0.74,6,Fog-Rain,298
2013-8-29,80,73,66,70,67,65,100,89,67,30.04,30.00,29.92,10,7,0,8,2,,0.07,7,Fog-Rain,34
2013-8-30,84,74,64,70,67,63,94,82,53,30.02,29.94,29.85,10,9,6,10,3,,0.00,4,,219
2013-8-31,82,76,71,74,71,68,96,86,74,29.84,29.82,29.78,10,7,4,12,7,,0.00,4,,215